KSUE/SUE METAR and TAF weather

Enter ICAO airport designator
Station Type Date Time Source
KSUE METAR 2019/02/21 06:30 UTC NOAA

KSUE 210630Z AUTO 25014KT 10SM BKN023 BKN035 OVC050 M01/M04 A2969 RMK AO2 FZRANO


Station Type Date Time Source
KSUE Decoded METAR 2019/02/21 06:30 UTC NOAA

Sturgeon Bay, WI, United States (KSUE) 44-51N 087-25W
Feb 21, 2019 - 01:30 AM EST / 2019.02.21 0630 UTC
Wind: from the WSW (250 degrees) at 16 MPH (14 KT):0
Visibility: 10 mile(s):0
Sky conditions: overcast
Temperature: 30 F (-1 C)
Windchill: 19 F (-7 C):1
Dew Point: 24 F (-4 C)
Relative Humidity: 80%
Pressure (altimeter): 29.69 in. Hg (1005 hPa)
ob: KSUE 210630Z AUTO 25014KT 10SM BKN023 BKN035 OVC050 M01/M04 A2969 RMK AO2 FZRANO
cycle: 6

Station Type Date Time Source
KSUE TAF UTC NOAA

Error!


Example: see airport list